createdAt,value
2022-11-05T00:02:23.025Z,78.07
2022-11-05T00:05:07.680Z,77.68
2022-11-05T00:07:59.908Z,77.91
2022-11-05T00:10:29.642Z,78.12
2022-11-05T00:13:17.615Z,78.38
2022-11-05T00:16:03.535Z,78.23
2022-11-05T00:18:30.081Z,78.23
2022-11-05T00:20:56.908Z,78.72
2022-11-05T00:23:42.011Z,78.90
2022-11-05T00:26:11.322Z,78.44
2022-11-05T00:28:38.493Z,78.47
2022-11-05T00:31:09.800Z,78.48
2022-11-05T00:33:37.465Z,78.99
2022-11-05T00:36:05.425Z,79.19
2022-11-05T00:38:32.114Z,79.33
2022-11-05T00:40:58.626Z,78.88
2022-11-05T00:43:44.332Z,78.19
2022-11-05T00:46:11.146Z,78.70
2022-11-05T00:48:56.395Z,78.58
2022-11-05T00:51:22.915Z,78.72
2022-11-05T00:53:49.431Z,78.46
2022-11-05T00:56:15.765Z,78.57
2022-11-05T00:58:42.066Z,78.25
2022-11-05T01:01:10.180Z,78.33
2022-11-05T01:03:38.007Z,78.71
2022-11-05T01:06:16.354Z,79.21
2022-11-05T01:08:45.420Z,79.07
2022-11-05T01:11:11.999Z,78.31
2022-11-05T01:13:39.870Z,78.41
2022-11-05T01:16:09.116Z,78.79
2022-11-05T01:18:38.208Z,79.11
2022-11-05T01:21:13.052Z,78.95
2022-11-05T01:23:39.379Z,79.35
2022-11-05T01:26:05.932Z,79.75
2022-11-05T01:28:32.456Z,79.18
2022-11-05T01:30:58.896Z,78.36
2022-11-05T01:33:25.531Z,77.97
2022-11-05T01:35:53.316Z,78.80
2022-11-05T01:38:19.862Z,78.41
2022-11-05T01:40:46.699Z,78.50
2022-11-05T01:43:21.700Z,79.04
2022-11-05T01:45:52.644Z,78.01
2022-11-05T01:48:37.809Z,77.93
2022-11-05T01:51:08.655Z,77.25
2022-11-05T01:53:46.932Z,76.22
2022-11-05T01:56:39.915Z,75.77
2022-11-05T01:59:06.272Z,75.54
2022-11-05T02:01:33.392Z,75.59
2022-11-05T02:04:04.611Z,76.09
2022-11-05T02:06:34.885Z,76.09
2022-11-05T02:09:03.970Z,76.75
2022-11-05T02:11:30.904Z,77.10
2022-11-05T02:13:57.408Z,77.09
2022-11-05T02:17:00.878Z,77.72
2022-11-05T02:19:39.804Z,78.41
2022-11-05T02:22:41.869Z,78.24
2022-11-05T02:25:54.444Z,77.93
2022-11-05T02:28:26.740Z,76.96
2022-11-05T02:30:56.891Z,77.29
2022-11-05T02:33:28.862Z,76.90
2022-11-05T02:36:06.517Z,77.38
2022-11-05T02:38:41.145Z,77.20
2022-11-05T02:41:30.424Z,77.09
2022-11-05T02:44:02.755Z,77.99
2022-11-05T02:46:37.974Z,77.84
2022-11-05T02:49:27.216Z,77.71
2022-11-05T02:51:58.785Z,78.43
2022-11-05T02:54:39.654Z,78.99
2022-11-05T02:57:06.808Z,78.74
2022-11-05T02:59:33.519Z,79.23
2022-11-05T03:02:01.889Z,79.20
2022-11-05T03:04:29.716Z,78.53
2022-11-05T03:07:31.416Z,78.18
2022-11-05T03:10:13.561Z,77.01
2022-11-05T03:12:49.149Z,77.37
2022-11-05T03:15:21.061Z,77.81
2022-11-05T03:18:23.981Z,77.89
2022-11-05T03:21:03.253Z,77.78
2022-11-05T03:23:46.403Z,78.09
2022-11-05T03:26:33.488Z,78.24
2022-11-05T03:29:06.534Z,78.10
2022-11-05T03:31:35.026Z,77.67
2022-11-05T03:34:04.467Z,77.58
2022-11-05T03:36:35.178Z,77.30
2022-11-05T03:39:06.337Z,77.19
2022-11-05T03:41:34.874Z,77.08
2022-11-05T03:44:05.229Z,76.78
2022-11-05T03:46:40.677Z,76.96
2022-11-05T03:49:11.121Z,76.87
2022-11-05T03:51:50.861Z,77.70
2022-11-05T03:54:17.325Z,77.82
2022-11-05T03:56:56.344Z,78.22
2022-11-05T03:59:24.025Z,78.71
2022-11-05T04:01:50.531Z,78.78
2022-11-05T04:04:17.385Z,79.14
2022-11-05T04:07:02.415Z,78.64
2022-11-05T04:09:47.504Z,79.19
2022-11-05T04:12:32.374Z,78.75
2022-11-05T04:14:58.847Z,79.36
2022-11-05T04:17:25.315Z,78.74
2022-11-05T04:20:10.279Z,79.10
2022-11-05T04:22:55.397Z,79.52
2022-11-05T04:25:22.166Z,79.40
2022-11-05T04:27:49.095Z,79.87
2022-11-05T04:30:21.871Z,79.69
2022-11-05T04:33:00.538Z,79.63
2022-11-05T04:35:29.045Z,79.89
2022-11-05T04:37:55.383Z,78.97
2022-11-05T04:40:21.718Z,78.77
2022-11-05T04:42:48.242Z,78.86
2022-11-05T04:45:14.723Z,78.03
2022-11-05T04:47:41.164Z,77.84
2022-11-05T04:50:09.542Z,78.11
2022-11-05T04:52:36.109Z,77.97
2022-11-05T04:55:02.476Z,78.92
2022-11-05T04:57:29.003Z,78.77
2022-11-05T04:59:55.495Z,78.89
2022-11-05T05:02:21.986Z,78.33
2022-11-05T05:04:48.349Z,78.07
2022-11-05T05:07:14.775Z,78.59
2022-11-05T05:09:41.174Z,79.10
2022-11-05T05:12:07.911Z,79.07
2022-11-05T05:14:34.442Z,79.14
2022-11-05T05:17:00.757Z,79.90
2022-11-05T05:19:27.513Z,79.99
2022-11-05T05:21:53.869Z,79.63
2022-11-05T05:24:21.273Z,79.07
2022-11-05T05:26:51.172Z,78.44
2022-11-05T05:29:17.973Z,78.49
2022-11-05T05:31:44.547Z,77.48
2022-11-05T05:34:12.902Z,77.95
2022-11-05T05:36:39.526Z,76.40
2022-11-05T05:39:07.592Z,78.10
2022-11-05T05:41:34.278Z,78.72
2022-11-05T05:44:00.594Z,78.35
2022-11-05T05:46:27.116Z,78.27
2022-11-05T05:48:53.503Z,78.91
2022-11-05T05:51:19.993Z,79.75
2022-11-05T05:53:46.342Z,80.49
2022-11-05T05:56:14.933Z,80.94
2022-11-05T05:58:41.616Z,80.75
2022-11-05T06:01:18.610Z,81.38
2022-11-05T06:03:46.320Z,82.14
2022-11-05T06:06:14.188Z,81.91
2022-11-05T06:08:41.898Z,82.04
2022-11-05T06:11:08.491Z,81.75
2022-11-05T06:13:35.853Z,81.70
2022-11-05T06:16:06.943Z,81.45
2022-11-05T06:18:34.133Z,81.57
2022-11-05T06:21:01.810Z,81.94
2022-11-05T06:23:30.576Z,81.94
2022-11-05T06:26:00.835Z,81.15
2022-11-05T06:28:27.325Z,80.22
2022-11-05T06:30:53.630Z,80.88
2022-11-05T06:33:19.953Z,81.34
2022-11-05T06:35:46.328Z,81.29
2022-11-05T06:38:12.775Z,81.61
2022-11-05T06:40:39.305Z,81.92
2022-11-05T06:43:05.621Z,82.00
2022-11-05T06:45:32.111Z,82.26
2022-11-05T06:47:59.234Z,81.75
2022-11-05T06:50:27.048Z,81.58
2022-11-05T06:52:58.177Z,81.88
2022-11-05T06:55:27.219Z,81.90
2022-11-05T06:57:54.175Z,81.82
2022-11-05T07:00:20.706Z,82.40
2022-11-05T07:02:47.376Z,82.29
2022-11-05T07:05:14.829Z,82.14
2022-11-05T07:07:42.799Z,82.07
2022-11-05T07:10:13.118Z,82.10
2022-11-05T07:12:39.513Z,81.99
2022-11-05T07:15:06.688Z,82.34
2022-11-05T07:17:33.208Z,82.61
2022-11-05T07:19:59.518Z,82.78
2022-11-05T07:22:25.882Z,82.23
2022-11-05T07:25:09.902Z,81.56
2022-11-05T07:27:40.119Z,80.58
2022-11-05T07:30:10.580Z,79.71
2022-11-05T07:32:40.710Z,79.50
2022-11-05T07:35:08.665Z,79.72
2022-11-05T07:37:45.233Z,80.81
2022-11-05T07:40:13.681Z,80.11
2022-11-05T07:42:44.993Z,79.67
2022-11-05T07:45:12.772Z,79.19
2022-11-05T07:47:45.181Z,79.11
2022-11-05T07:50:11.535Z,79.20
2022-11-05T07:52:37.861Z,79.85
2022-11-05T07:55:04.623Z,80.94
2022-11-05T07:57:30.942Z,81.39
2022-11-05T07:59:57.283Z,81.24
2022-11-05T08:02:23.815Z,81.26
2022-11-05T08:04:50.303Z,81.74
2022-11-05T08:07:16.628Z,81.74
2022-11-05T08:09:42.998Z,81.55
2022-11-05T08:12:09.507Z,81.55
2022-11-05T08:14:35.825Z,81.00
2022-11-05T08:17:02.125Z,81.12
2022-11-05T08:19:28.491Z,81.20
2022-11-05T08:21:55.131Z,81.14
2022-11-05T08:24:21.649Z,81.51
2022-11-05T08:26:48.016Z,81.63
2022-11-05T08:29:14.371Z,81.95
2022-11-05T08:31:40.723Z,82.31
2022-11-05T08:34:07.657Z,81.97
2022-11-05T08:36:35.211Z,81.43
2022-11-05T08:39:01.744Z,80.81
2022-11-05T08:41:28.470Z,80.21
2022-11-05T08:43:56.178Z,80.66
2022-11-05T08:46:22.750Z,80.63
2022-11-05T08:48:49.827Z,80.63
2022-11-05T08:51:16.211Z,81.11
2022-11-05T08:53:42.564Z,81.16
2022-11-05T08:56:08.999Z,80.99
2022-11-05T08:58:35.556Z,81.21
2022-11-05T09:01:05.419Z,82.28
2022-11-05T09:03:32.052Z,82.69
2022-11-05T09:05:58.596Z,81.94
2022-11-05T09:08:25.112Z,81.86
2022-11-05T09:10:51.517Z,81.72
2022-11-05T09:13:19.745Z,81.99
2022-11-05T09:15:47.803Z,81.96
2022-11-05T09:18:15.045Z,81.88
2022-11-05T09:20:41.748Z,82.33
2022-11-05T09:23:09.933Z,82.16
2022-11-05T09:25:36.583Z,81.88
2022-11-05T09:28:16.453Z,81.25
2022-11-05T09:30:45.300Z,81.42
2022-11-05T09:33:12.062Z,81.14
2022-11-05T09:35:41.836Z,81.25
2022-11-05T09:38:08.690Z,81.16
2022-11-05T09:40:46.597Z,80.92
2022-11-05T09:43:26.107Z,81.10
2022-11-05T09:45:59.067Z,80.92
2022-11-05T09:48:30.811Z,80.10
2022-11-05T09:50:58.167Z,79.88
2022-11-05T09:53:25.394Z,80.36
2022-11-05T09:55:56.182Z,80.92
2022-11-05T09:58:28.888Z,80.82
2022-11-05T10:00:57.149Z,81.05
2022-11-05T10:03:24.553Z,80.55
2022-11-05T10:05:53.037Z,80.68
2022-11-05T10:08:27.438Z,79.07
2022-11-05T10:10:55.525Z,79.34
2022-11-05T10:13:45.574Z,78.56
2022-11-05T10:16:25.916Z,77.60
2022-11-05T10:18:57.138Z,77.77
2022-11-05T10:21:44.109Z,77.71
2022-11-05T10:24:16.845Z,77.77
2022-11-05T10:26:46.395Z,76.51
2022-11-05T10:29:15.826Z,77.26
2022-11-05T10:31:43.290Z,76.27
2022-11-05T10:34:13.394Z,77.20
2022-11-05T10:36:40.028Z,76.84
2022-11-05T10:39:18.350Z,75.73
2022-11-05T10:42:17.200Z,74.81
2022-11-05T10:45:17.282Z,73.73
2022-11-05T10:47:54.678Z,74.22
2022-11-05T10:50:29.481Z,73.95
2022-11-05T10:53:02.533Z,73.93
2022-11-05T10:55:36.092Z,73.74
2022-11-05T10:58:17.803Z,73.45
2022-11-05T11:00:46.337Z,73.60
2022-11-05T11:03:46.565Z,73.71
2022-11-05T11:06:26.581Z,73.68
2022-11-05T11:08:56.582Z,74.14
2022-11-05T11:11:36.021Z,73.42
2022-11-05T11:14:25.703Z,73.81
2022-11-05T11:16:57.092Z,73.60
2022-11-05T11:19:34.609Z,73.89
2022-11-05T11:22:04.030Z,73.84
2022-11-05T11:24:37.341Z,73.58
2022-11-05T11:27:09.198Z,73.93
2022-11-05T11:29:41.130Z,73.65
2022-11-05T11:32:16.897Z,73.00
2022-11-05T11:34:45.661Z,74.43
2022-11-05T11:37:19.733Z,74.69
2022-11-05T11:39:54.930Z,77.60
2022-11-05T11:42:29.656Z,77.18
2022-11-05T11:44:59.965Z,75.87
2022-11-05T11:47:28.830Z,77.05
2022-11-05T11:49:58.070Z,78.45
2022-11-05T11:52:29.737Z,77.08
2022-11-05T11:55:19.229Z,75.03
2022-11-05T11:57:53.406Z,73.62
2022-11-05T12:00:23.288Z,73.36
2022-11-05T12:03:02.104Z,73.48
2022-11-05T12:05:59.538Z,73.67
2022-11-05T12:08:35.842Z,73.75
2022-11-05T12:11:10.217Z,73.36
2022-11-05T12:13:49.041Z,74.24
2022-11-05T12:16:40.235Z,75.59
2022-11-05T12:19:31.760Z,76.98
2022-11-05T12:22:48.609Z,77.79
2022-11-05T12:26:00.336Z,77.37
2022-11-05T12:29:18.409Z,77.15
2022-11-05T12:32:07.468Z,76.98
2022-11-05T12:34:52.831Z,74.82
2022-11-05T12:37:48.673Z,76.24
2022-11-05T12:41:06.328Z,75.33
2022-11-05T12:43:44.477Z,74.38
2022-11-05T12:46:34.359Z,73.07
2022-11-05T12:49:33.652Z,71.50
2022-11-05T12:52:24.778Z,71.06
2022-11-05T12:55:17.661Z,70.26
2022-11-05T12:57:47.889Z,68.79
2022-11-05T13:00:26.823Z,69.51
2022-11-05T13:03:04.185Z,68.43
2022-11-05T13:05:42.204Z,67.57
2022-11-05T13:08:34.286Z,67.26
2022-11-05T13:11:15.631Z,68.63
2022-11-05T13:14:13.300Z,68.40
2022-11-05T13:16:47.633Z,67.99
2022-11-05T13:19:48.345Z,68.82
2022-11-05T13:22:23.883Z,68.53
2022-11-05T13:24:55.590Z,68.43
2022-11-05T13:27:45.809Z,67.99
2022-11-05T13:30:20.625Z,68.06
2022-11-05T13:32:58.447Z,67.83
2022-11-05T13:35:35.531Z,68.51
2022-11-05T13:38:26.367Z,67.61
2022-11-05T13:41:05.422Z,66.97
2022-11-05T13:43:57.248Z,66.15
2022-11-05T13:46:45.255Z,65.36
2022-11-05T13:49:38.337Z,65.02
2022-11-05T13:52:35.683Z,65.31
2022-11-05T13:55:18.441Z,65.99
2022-11-05T13:58:01.257Z,65.41
2022-11-05T14:00:31.510Z,65.00
2022-11-05T14:03:02.525Z,65.10
2022-11-05T14:05:34.574Z,65.19
2022-11-05T14:08:09.085Z,65.25
2022-11-05T14:10:39.912Z,65.41
2022-11-05T14:13:32.624Z,65.30
2022-11-05T14:16:17.891Z,66.87
2022-11-05T14:18:54.836Z,67.63
2022-11-05T14:21:27.063Z,67.58
2022-11-05T14:23:56.098Z,67.44
2022-11-05T14:26:24.323Z,66.68
2022-11-05T14:29:11.841Z,67.29
2022-11-05T14:32:08.287Z,67.69
2022-11-05T14:34:49.310Z,68.41
2022-11-05T14:37:25.209Z,68.29
2022-11-05T14:39:54.596Z,67.92
2022-11-05T14:42:30.478Z,67.49
2022-11-05T14:44:59.791Z,67.90
2022-11-05T14:47:31.346Z,68.67
2022-11-05T14:50:03.907Z,68.45
2022-11-05T14:52:37.435Z,68.09
2022-11-05T14:55:05.484Z,69.11
2022-11-05T14:57:52.085Z,68.19
2022-11-05T15:00:36.460Z,67.86
2022-11-05T15:03:24.756Z,67.93
2022-11-05T15:05:53.179Z,67.93
2022-11-05T15:08:28.944Z,67.62
2022-11-05T15:11:25.375Z,68.86
2022-11-05T15:13:54.767Z,67.83
2022-11-05T15:16:34.218Z,66.94
2022-11-05T15:19:01.506Z,66.35
2022-11-05T15:21:34.849Z,66.38
2022-11-05T15:24:02.344Z,65.73
2022-11-05T15:26:47.774Z,65.14
2022-11-05T15:29:19.521Z,67.01
2022-11-05T15:31:46.824Z,67.07
2022-11-05T15:34:18.332Z,66.93
2022-11-05T15:36:55.975Z,66.00
2022-11-05T15:39:39.915Z,67.90
2022-11-05T15:42:14.435Z,67.72
2022-11-05T15:44:42.982Z,67.49
2022-11-05T15:47:19.925Z,67.13
2022-11-05T15:49:50.709Z,65.86
2022-11-05T15:52:20.105Z,65.90
2022-11-05T15:54:46.484Z,65.76
2022-11-05T15:57:25.519Z,65.92
2022-11-05T15:59:51.999Z,66.64
2022-11-05T16:02:35.799Z,66.68
2022-11-05T16:05:09.327Z,66.45
2022-11-05T16:07:35.916Z,66.85
2022-11-05T16:10:02.364Z,66.56
2022-11-05T16:12:34.700Z,66.72
2022-11-05T16:15:00.986Z,67.83
2022-11-05T16:17:31.903Z,69.36
2022-11-05T16:19:58.577Z,70.86
2022-11-05T16:22:25.522Z,71.91
2022-11-05T16:24:51.888Z,72.20
2022-11-05T16:27:22.465Z,71.29
2022-11-05T16:29:54.424Z,70.62
2022-11-05T16:32:30.745Z,70.26
2022-11-05T16:35:00.821Z,69.99
2022-11-05T16:37:29.857Z,70.00
2022-11-05T16:39:56.292Z,70.55
2022-11-05T16:42:22.636Z,71.33
2022-11-05T16:44:53.885Z,71.65
2022-11-05T16:47:21.300Z,72.84
2022-11-05T16:49:48.244Z,72.51
2022-11-05T16:52:15.844Z,72.80
2022-11-05T16:54:42.287Z,72.72
2022-11-05T16:57:24.143Z,72.82
2022-11-05T16:59:50.758Z,72.59
2022-11-05T17:02:17.350Z,72.23
2022-11-05T17:04:43.831Z,71.46
2022-11-05T17:07:10.157Z,71.31
2022-11-05T17:09:36.757Z,70.92
2022-11-05T17:12:03.357Z,71.28
2022-11-05T17:14:29.907Z,72.21
2022-11-05T17:16:56.243Z,72.36
2022-11-05T17:19:22.592Z,72.01
2022-11-05T17:21:49.948Z,70.71
2022-11-05T17:24:16.538Z,70.18
2022-11-05T17:26:43.118Z,69.93
2022-11-05T17:29:09.629Z,69.68
2022-11-05T17:31:35.993Z,69.67
2022-11-05T17:34:02.329Z,69.82
2022-11-05T17:36:28.655Z,69.18
2022-11-05T17:38:54.969Z,69.45
2022-11-05T17:41:22.978Z,69.09
2022-11-05T17:43:54.549Z,69.11
2022-11-05T17:46:21.268Z,69.54
2022-11-05T17:48:47.603Z,69.29
2022-11-05T17:51:16.018Z,68.89
2022-11-05T17:53:42.758Z,69.11
2022-11-05T17:56:13.435Z,69.33
2022-11-05T17:58:40.475Z,68.90
2022-11-05T18:01:08.634Z,68.81
2022-11-05T18:03:35.271Z,68.70
2022-11-05T18:06:06.193Z,68.92
2022-11-05T18:08:33.128Z,68.88
2022-11-05T18:10:59.659Z,69.39
2022-11-05T18:13:25.998Z,69.40
2022-11-05T18:15:53.180Z,68.66
2022-11-05T18:18:20.600Z,68.96
2022-11-05T18:20:47.240Z,68.53
2022-11-05T18:23:14.626Z,69.00
2022-11-05T18:25:41.792Z,68.99
2022-11-05T18:28:08.894Z,69.27
2022-11-05T18:30:38.183Z,68.94
2022-11-05T18:33:04.711Z,69.20
2022-11-05T18:35:31.099Z,69.21
2022-11-05T18:37:57.638Z,69.33
2022-11-05T18:40:24.211Z,69.31
2022-11-05T18:42:50.646Z,69.55
2022-11-05T18:45:17.005Z,69.39
2022-11-05T18:47:43.526Z,69.33
2022-11-05T18:50:10.404Z,69.09
2022-11-05T18:52:37.147Z,69.00
2022-11-05T18:55:03.670Z,68.71
2022-11-05T18:57:30.214Z,69.06
2022-11-05T18:59:56.534Z,68.79
2022-11-05T19:02:23.112Z,69.07
2022-11-05T19:05:13.775Z,69.16
2022-11-05T19:07:37.733Z,69.88
2022-11-05T19:10:04.404Z,70.18
2022-11-05T19:12:30.784Z,70.25
2022-11-05T19:15:02.091Z,70.74
2022-11-05T19:17:29.333Z,70.29
2022-11-05T19:19:55.784Z,69.83
2022-11-05T19:22:22.166Z,69.93
2022-11-05T19:24:48.716Z,69.67
2022-11-05T19:27:15.097Z,69.71
2022-11-05T19:29:41.667Z,69.71
2022-11-05T19:32:09.396Z,69.80
2022-11-05T19:34:36.567Z,69.66
2022-11-05T19:37:03.046Z,69.66
2022-11-05T19:39:29.488Z,69.32
2022-11-05T19:42:01.940Z,69.63
2022-11-05T19:44:29.667Z,69.20
2022-11-05T19:46:56.293Z,69.29
2022-11-05T19:49:23.065Z,69.27
2022-11-05T19:51:49.437Z,69.22
2022-11-05T19:54:16.012Z,69.44
2022-11-05T19:56:42.689Z,69.52
2022-11-05T19:59:11.605Z,69.18
2022-11-05T20:01:38.162Z,69.04
2022-11-05T20:04:05.663Z,69.29
2022-11-05T20:06:37.906Z,69.03
2022-11-05T20:09:21.147Z,69.01
2022-11-05T20:11:49.673Z,69.38
2022-11-05T20:14:16.042Z,69.57
2022-11-05T20:16:42.863Z,69.42
2022-11-05T20:19:14.906Z,69.83
2022-11-05T20:21:41.423Z,69.67
2022-11-05T20:24:08.054Z,69.58
2022-11-05T20:26:35.337Z,69.77
2022-11-05T20:29:01.908Z,68.92
2022-11-05T20:31:28.539Z,68.80
2022-11-05T20:33:55.042Z,69.41
2022-11-05T20:36:24.477Z,69.21
2022-11-05T20:38:53.320Z,69.77
2022-11-05T20:41:19.893Z,69.44
2022-11-05T20:43:47.889Z,69.62
2022-11-05T20:46:17.335Z,69.19
2022-11-05T20:48:43.877Z,69.03
2022-11-05T20:51:16.016Z,68.94
2022-11-05T20:53:43.705Z,69.28
2022-11-05T20:56:18.885Z,68.88
2022-11-05T20:58:45.397Z,68.85
2022-11-05T21:01:13.244Z,69.17
2022-11-05T21:03:39.766Z,69.10
2022-11-05T21:06:06.333Z,69.22
2022-11-05T21:08:33.271Z,69.39
2022-11-05T21:11:00.470Z,69.10
2022-11-05T21:13:27.576Z,68.80
2022-11-05T21:15:57.174Z,69.33
2022-11-05T21:18:27.009Z,68.99
2022-11-05T21:20:54.285Z,69.11
2022-11-05T21:23:21.347Z,68.90
2022-11-05T21:25:48.207Z,68.99
2022-11-05T21:28:15.772Z,68.81
2022-11-05T21:30:47.549Z,68.58
2022-11-05T21:33:15.923Z,68.57
2022-11-05T21:35:44.885Z,68.59
2022-11-05T21:38:13.366Z,68.46
2022-11-05T21:40:40.223Z,68.63
2022-11-05T21:43:07.461Z,68.39
2022-11-05T21:45:33.824Z,68.89
2022-11-05T21:48:00.143Z,68.94
2022-11-05T21:50:49.812Z,68.96
2022-11-05T21:53:35.770Z,69.19
2022-11-05T21:56:25.947Z,68.93
2022-11-05T21:59:10.742Z,69.06
2022-11-05T22:01:37.238Z,69.49
2022-11-05T22:04:03.737Z,70.37
2022-11-05T22:06:33.223Z,70.76
2022-11-05T22:08:59.888Z,71.47
2022-11-05T22:11:26.483Z,71.26
2022-11-05T22:13:53.397Z,71.99
2022-11-05T22:16:20.793Z,71.56
2022-11-05T22:18:47.133Z,71.32
2022-11-05T22:21:18.619Z,70.92
2022-11-05T22:23:45.169Z,70.80
2022-11-05T22:26:11.574Z,69.91
2022-11-05T22:28:37.977Z,70.71
2022-11-05T22:31:04.342Z,70.86
2022-11-05T22:33:31.503Z,70.26
2022-11-05T22:35:57.866Z,70.67
2022-11-05T22:38:24.423Z,70.18
2022-11-05T22:40:50.950Z,70.88
2022-11-05T22:43:17.279Z,70.18
2022-11-05T22:45:43.747Z,70.60
2022-11-05T22:48:10.399Z,69.70
2022-11-05T22:50:37.125Z,70.53
2022-11-05T22:53:03.587Z,70.07
2022-11-05T22:55:29.948Z,70.60
2022-11-05T22:57:56.293Z,69.83
2022-11-05T23:00:35.662Z,70.32
2022-11-05T23:03:02.901Z,70.76
2022-11-05T23:05:29.594Z,71.20
2022-11-05T23:08:14.900Z,71.48
2022-11-05T23:11:00.179Z,71.50
2022-11-05T23:13:26.669Z,71.90
2022-11-05T23:16:11.829Z,72.56
2022-11-05T23:18:56.762Z,72.46
2022-11-05T23:21:41.723Z,72.48
2022-11-05T23:24:08.280Z,72.43
2022-11-05T23:26:52.029Z,72.01
2022-11-05T23:29:26.439Z,72.44
2022-11-05T23:32:12.195Z,72.21
2022-11-05T23:34:39.500Z,72.61
2022-11-05T23:37:25.027Z,72.58
2022-11-05T23:39:51.863Z,71.53
2022-11-05T23:42:37.516Z,71.57
2022-11-05T23:45:23.723Z,71.33
2022-11-05T23:48:08.905Z,71.49
2022-11-05T23:50:39.809Z,71.76
2022-11-05T23:53:07.129Z,72.02
2022-11-05T23:55:33.681Z,72.23
2022-11-05T23:58:00.222Z,71.82
